createdAt,value
2023-03-18T17:20:20.759Z,23.84
2023-03-18T17:21:24.378Z,23.59
2023-03-18T17:22:29.900Z,23.40
2023-03-18T17:32:11.164Z,23.59
2023-03-18T17:33:29.114Z,23.46
2023-03-18T17:34:32.254Z,23.97
2023-03-18T17:35:36.114Z,24.17
2023-03-18T17:36:40.862Z,23.91
2023-03-18T17:37:44.021Z,23.66
2023-03-18T17:38:48.166Z,23.50
2023-03-18T17:39:51.525Z,23.40
2023-03-18T17:40:56.343Z,23.28
2023-03-18T17:41:59.610Z,23.19
2023-03-18T17:43:01.831Z,23.13
2023-03-18T17:44:27.205Z,23.08
2023-03-18T17:45:39.297Z,23.03
2023-03-18T17:46:43.746Z,23.00
2023-03-18T17:47:45.969Z,22.96
2023-03-18T17:48:50.128Z,22.94
2023-03-18T17:49:53.494Z,22.92
2023-03-18T17:52:18.212Z,22.90
2023-03-18T17:53:47.899Z,22.79
2023-03-18T17:54:52.097Z,22.56
2023-03-18T17:55:56.238Z,22.45
2023-03-18T17:57:00.122Z,22.47
2023-03-18T17:58:07.685Z,22.53
2023-03-18T18:00:29.171Z,22.77
2023-03-18T18:01:32.668Z,22.74
2023-03-18T18:02:35.905Z,22.78
2023-03-18T18:07:18.788Z,24.11
2023-03-18T18:08:23.078Z,22.18
2023-03-18T18:09:28.948Z,21.42
2023-03-18T18:10:36.365Z,20.48
2023-03-18T18:11:41.611Z,19.56
2023-03-18T18:12:48.593Z,18.80
2023-03-18T18:13:56.099Z,18.04
2023-03-18T18:15:02.504Z,17.37
2023-03-18T18:16:05.101Z,16.82
2023-03-18T18:17:16.250Z,16.33
2023-03-18T18:19:33.403Z,15.59
2023-03-18T18:20:35.624Z,14.92
2023-03-18T18:21:38.270Z,14.65
2023-03-18T18:22:44.234Z,14.42
2023-03-18T18:23:47.889Z,14.19
2023-03-18T18:24:51.303Z,13.93
2023-03-18T18:25:55.418Z,13.69
2023-03-18T18:27:00.843Z,13.50
2023-03-18T18:28:11.264Z,13.33
2023-03-18T18:29:16.949Z,13.15
2023-03-18T18:30:27.441Z,13.03
2023-03-18T18:31:29.503Z,12.91
2023-03-18T18:32:35.189Z,12.79
2023-03-18T18:33:40.735Z,12.70
2023-03-18T18:34:43.566Z,12.61
2023-03-18T18:35:45.729Z,12.53
2023-03-18T18:36:50.110Z,12.45
2023-03-18T18:37:52.943Z,12.39
2023-03-18T18:38:59.903Z,12.34
2023-03-18T18:40:09.293Z,12.28
2023-03-18T18:41:11.634Z,12.21
2023-03-18T18:42:13.796Z,12.16
2023-03-18T18:43:16.457Z,12.13
2023-03-18T18:44:18.611Z,12.09
2023-03-18T18:45:23.040Z,12.02
2023-03-18T18:46:26.685Z,11.98
2023-03-18T18:47:29.356Z,11.95
2023-03-18T18:49:45.140Z,11.99
2023-03-18T18:50:50.073Z,11.78
2023-03-18T18:51:55.543Z,11.79
2023-03-18T18:52:59.163Z,11.77
2023-03-18T18:54:02.727Z,11.77
2023-03-18T18:55:06.619Z,11.74
2023-03-18T18:56:25.381Z,11.74
2023-03-18T18:57:30.279Z,11.71
2023-03-18T18:58:32.726Z,11.70
2023-03-18T18:59:35.775Z,11.68
2023-03-18T19:00:39.291Z,11.67
2023-03-18T19:01:45.426Z,11.64
2023-03-18T19:02:56.983Z,11.62
2023-03-18T19:04:04.097Z,11.61
2023-03-18T19:05:09.151Z,11.58
2023-03-18T19:06:35.448Z,11.56
2023-03-18T19:07:43.449Z,11.54
2023-03-18T19:08:50.746Z,11.52
2023-03-18T19:09:57.460Z,11.51
2023-03-18T19:11:03.650Z,11.49
2023-03-18T19:12:12.950Z,11.47
2023-03-18T19:13:18.973Z,11.45
2023-03-18T19:14:26.320Z,11.43
2023-03-18T19:15:28.539Z,11.41
2023-03-18T19:16:33.681Z,11.39
2023-03-18T19:17:37.700Z,11.37
2023-03-18T19:18:42.093Z,11.31
2023-03-18T19:19:49.028Z,11.31
2023-03-18T19:20:53.362Z,11.30
2023-03-18T19:21:58.549Z,11.27
2023-03-18T19:23:08.070Z,11.27
2023-03-18T19:25:31.362Z,11.36
2023-03-18T19:27:45.963Z,11.30
2023-03-18T19:29:04.831Z,11.14
2023-03-18T19:30:00.639Z,11.14
2023-03-18T19:31:04.820Z,11.16
2023-03-18T19:32:18.999Z,11.16
2023-03-18T19:33:21.642Z,11.18
2023-03-18T19:34:24.881Z,11.19
2023-03-18T19:35:27.111Z,11.16
2023-03-18T19:36:33.108Z,11.14
2023-03-18T19:37:38.140Z,11.11
2023-03-18T19:38:40.404Z,11.09
2023-03-18T19:39:44.561Z,11.07
2023-03-18T19:40:49.543Z,11.10
2023-03-18T19:41:51.964Z,11.07
2023-03-18T19:42:54.569Z,11.07
2023-03-18T19:45:14.773Z,11.14
2023-03-18T19:46:25.734Z,10.94
2023-03-18T19:47:30.233Z,10.95
2023-03-18T19:48:32.529Z,10.92
2023-03-18T19:49:36.077Z,10.92
2023-03-18T19:50:40.506Z,10.92
2023-03-18T19:51:43.490Z,10.90
2023-03-18T19:52:46.216Z,10.91
2023-03-18T19:53:48.777Z,10.90
2023-03-18T19:54:52.444Z,10.89
2023-03-18T19:55:55.098Z,10.86
2023-03-18T19:57:00.494Z,10.85
2023-03-18T19:58:03.326Z,10.83
2023-03-18T19:59:09.514Z,10.81
2023-03-18T20:01:34.786Z,10.90
2023-03-18T20:02:37.846Z,10.72
2023-03-18T20:03:40.274Z,10.72
2023-03-18T20:04:43.371Z,10.70
2023-03-18T20:05:47.116Z,10.69
2023-03-18T20:06:49.414Z,10.70
2023-03-18T20:07:52.124Z,10.69
2023-03-18T20:08:54.436Z,10.67
2023-03-18T20:09:56.932Z,10.67
2023-03-18T20:10:59.577Z,10.67
2023-03-18T20:12:04.392Z,10.68
2023-03-18T20:13:10.883Z,10.67
2023-03-18T20:14:31.679Z,10.66
2023-03-18T20:15:35.310Z,10.65
2023-03-18T20:16:37.741Z,10.63
2023-03-18T20:17:43.243Z,10.64
2023-03-18T20:18:45.761Z,10.62
2023-03-18T20:19:47.925Z,10.62
2023-03-18T20:20:50.976Z,10.61
2023-03-18T20:21:53.201Z,10.61
2023-03-18T20:23:03.080Z,10.60
2023-03-18T20:24:08.934Z,10.57
2023-03-18T20:26:29.944Z,10.69
2023-03-18T20:27:32.765Z,10.49
2023-03-18T20:28:36.518Z,10.52
2023-03-18T20:29:38.685Z,10.51
2023-03-18T20:30:47.443Z,10.50
2023-03-18T20:31:54.344Z,10.50
2023-03-18T20:32:59.916Z,10.47
2023-03-18T20:34:07.628Z,10.48
2023-03-18T20:35:10.433Z,10.45
2023-03-18T20:36:19.210Z,10.46
2023-03-18T20:38:57.360Z,10.57
2023-03-18T20:41:19.581Z,10.49
2023-03-18T20:42:24.066Z,10.36
2023-03-18T20:43:29.127Z,10.37
2023-03-18T20:44:46.455Z,10.37
2023-03-18T20:45:52.622Z,10.36
2023-03-18T20:46:55.318Z,10.35
2023-03-18T20:47:57.620Z,10.34
2023-03-18T20:48:59.860Z,10.30
2023-03-18T20:50:03.062Z,10.32
2023-03-18T20:52:44.823Z,10.41
2023-03-18T20:53:53.391Z,10.23
2023-03-18T20:54:57.703Z,10.23
2023-03-18T20:56:01.397Z,10.23
2023-03-18T20:57:04.037Z,10.23
2023-03-18T20:58:10.341Z,10.20
2023-03-18T20:59:12.576Z,10.20
2023-03-18T21:00:17.644Z,10.18
2023-03-18T21:01:20.353Z,10.17
2023-03-18T21:02:35.142Z,10.16
2023-03-18T21:03:37.631Z,10.16
2023-03-18T21:04:40.961Z,10.14
2023-03-18T21:05:43.059Z,10.13
2023-03-18T21:06:45.297Z,10.11
2023-03-18T21:07:48.139Z,10.11
2023-03-18T21:08:50.306Z,10.10
2023-03-18T21:09:54.858Z,10.10
2023-03-18T21:11:01.493Z,10.10
2023-03-18T21:12:05.523Z,10.09
2023-03-18T21:14:42.197Z,10.23
2023-03-18T21:15:46.549Z,10.07
2023-03-18T21:16:49.777Z,10.05
2023-03-18T21:17:57.972Z,10.05
2023-03-18T21:19:03.461Z,10.04
2023-03-18T21:21:40.805Z,10.15
2023-03-18T21:22:47.901Z,9.97
2023-03-18T21:23:52.917Z,9.99
2023-03-18T21:25:01.905Z,9.98
2023-03-18T21:26:12.145Z,9.97
2023-03-18T21:27:23.841Z,9.95
2023-03-18T21:29:48.698Z,10.06
2023-03-18T21:30:58.397Z,9.86
2023-03-18T21:32:01.217Z,9.87
2023-03-18T21:34:19.647Z,9.97
2023-03-18T21:35:25.310Z,9.78
2023-03-18T21:36:29.143Z,9.78
2023-03-18T21:37:31.841Z,9.77
2023-03-18T21:38:33.969Z,9.75
2023-03-18T21:39:36.064Z,9.74
2023-03-18T21:40:44.875Z,9.74
2023-03-18T21:41:48.754Z,9.74
2023-03-18T21:42:54.160Z,9.72
2023-03-18T21:43:58.169Z,9.72
2023-03-18T21:45:00.985Z,9.70
2023-03-18T21:46:07.368Z,9.69
2023-03-18T21:47:17.847Z,9.67
2023-03-18T21:48:20.781Z,9.65
2023-03-18T21:49:33.886Z,9.67
2023-03-18T21:50:40.658Z,9.64
2023-03-18T21:51:44.751Z,9.65
2023-03-18T21:52:48.187Z,9.61
2023-03-18T21:53:54.674Z,9.60
2023-03-18T21:55:10.307Z,9.58
2023-03-18T21:56:13.819Z,9.58
2023-03-18T21:57:19.135Z,9.56
2023-03-18T21:58:27.114Z,9.54
2023-03-18T21:59:32.968Z,9.53
2023-03-18T22:00:35.502Z,9.51
2023-03-18T22:01:40.899Z,9.49
2023-03-18T22:02:48.794Z,9.48
2023-03-18T22:03:51.120Z,9.48
2023-03-18T22:05:01.676Z,9.47
2023-03-18T22:06:05.721Z,9.46
2023-03-18T22:07:19.811Z,9.44
2023-03-18T22:08:26.073Z,9.42
2023-03-18T22:09:29.927Z,9.42
2023-03-18T22:10:33.356Z,9.42
2023-03-18T22:11:37.818Z,9.39
2023-03-18T22:12:43.405Z,9.37
2023-03-18T22:13:52.584Z,9.37
2023-03-18T22:14:56.020Z,9.37
2023-03-18T22:16:00.447Z,9.37
2023-03-18T22:18:45.664Z,9.51
2023-03-18T22:19:58.649Z,9.33
2023-03-18T22:21:01.183Z,9.34
2023-03-18T22:22:07.564Z,9.35
2023-03-18T22:23:19.225Z,9.34
2023-03-18T22:24:21.479Z,9.32
2023-03-18T22:25:35.832Z,9.31
2023-03-18T22:26:43.437Z,9.29
2023-03-18T22:27:47.270Z,9.28
2023-03-18T22:28:52.629Z,9.26
2023-03-18T22:29:57.948Z,9.23
2023-03-18T22:31:05.270Z,9.23
2023-03-18T22:32:27.413Z,9.20
2023-03-18T22:33:33.571Z,9.22
2023-03-18T22:34:35.732Z,9.18
2023-03-18T22:35:38.119Z,9.20
2023-03-18T22:36:41.421Z,9.17
2023-03-18T22:37:54.412Z,9.16
2023-03-18T22:38:58.832Z,9.16
2023-03-18T22:40:02.082Z,9.15
2023-03-18T22:41:04.533Z,9.18
2023-03-18T22:42:10.275Z,9.17
2023-03-18T22:43:33.201Z,9.18
2023-03-18T22:44:35.839Z,9.19
2023-03-18T22:45:40.687Z,9.16
2023-03-18T22:46:49.125Z,9.17
2023-03-18T22:49:15.069Z,9.27
2023-03-18T22:50:18.471Z,9.11
2023-03-18T22:51:28.138Z,9.12
2023-03-18T22:52:32.231Z,9.13
2023-03-18T22:54:53.059Z,9.26
2023-03-18T22:56:17.294Z,9.10
2023-03-18T22:57:26.559Z,9.12
2023-03-18T22:58:30.963Z,9.11
2023-03-18T22:59:33.999Z,9.13
2023-03-18T23:00:41.145Z,9.13
2023-03-18T23:01:44.686Z,9.12
2023-03-18T23:02:50.406Z,9.12
2023-03-18T23:03:54.424Z,9.12
2023-03-18T23:04:56.851Z,9.12
2023-03-18T23:06:16.370Z,9.14
2023-03-18T23:07:31.940Z,9.12
2023-03-18T23:08:34.472Z,9.12
2023-03-18T23:09:50.410Z,9.13
2023-03-18T23:10:47.877Z,9.14
2023-03-18T23:11:49.996Z,9.14
2023-03-18T23:12:53.042Z,9.14
2023-03-18T23:13:56.682Z,9.15
2023-03-18T23:15:01.700Z,9.15
2023-03-18T23:16:17.290Z,9.15
2023-03-18T23:17:26.503Z,9.14
2023-03-18T23:18:33.961Z,9.15
2023-03-18T23:19:38.691Z,9.16
2023-03-18T23:20:45.691Z,9.17
2023-03-18T23:21:47.848Z,9.17
2023-03-18T23:22:50.031Z,9.17
2023-03-18T23:23:53.130Z,9.20
2023-03-18T23:25:00.114Z,9.21
2023-03-18T23:26:02.551Z,9.21
2023-03-18T23:27:10.324Z,9.23
2023-03-18T23:28:18.046Z,9.24
2023-03-18T23:29:20.519Z,9.24
2023-03-18T23:30:24.802Z,9.25
2023-03-18T23:31:28.441Z,9.24
2023-03-18T23:32:33.670Z,9.24
2023-03-18T23:33:35.864Z,9.23
2023-03-18T23:34:42.596Z,9.24
2023-03-18T23:35:45.595Z,9.23
2023-03-18T23:36:52.624Z,9.23
2023-03-18T23:38:04.135Z,9.25
2023-03-18T23:39:06.822Z,9.23
2023-03-18T23:40:11.704Z,9.23
2023-03-18T23:41:14.210Z,9.23
2023-03-18T23:42:20.233Z,9.24
2023-03-18T23:43:29.562Z,9.25
2023-03-18T23:44:34.770Z,9.23
2023-03-18T23:45:39.218Z,9.26
2023-03-18T23:46:49.326Z,9.25
2023-03-18T23:47:54.545Z,9.27
2023-03-18T23:49:06.169Z,9.28
2023-03-18T23:50:10.695Z,9.29
2023-03-18T23:51:14.689Z,9.31
2023-03-18T23:52:16.798Z,9.30
2023-03-18T23:53:19.516Z,9.29
2023-03-18T23:54:22.570Z,9.32
2023-03-18T23:55:45.648Z,9.29
2023-03-18T23:56:31.949Z,9.30
2023-03-18T23:57:43.763Z,9.30
2023-03-18T23:58:46.047Z,9.28
2023-03-18T23:59:48.734Z,9.30
